createdAt,value
2018-07-20T00:02:20.803Z,4.70
2018-07-20T00:04:48.887Z,6.27
2018-07-20T00:07:16.986Z,5.50
2018-07-20T00:09:45.191Z,5.80
2018-07-20T00:12:13.082Z,5.70
2018-07-20T00:14:41.268Z,5.33
2018-07-20T00:17:09.460Z,5.10
2018-07-20T00:19:37.567Z,5.30
2018-07-20T00:22:05.936Z,5.17
2018-07-20T00:24:34.005Z,6.20
2018-07-20T00:27:02.116Z,5.50
2018-07-20T00:29:30.218Z,6.77
2018-07-20T00:31:58.386Z,5.17
2018-07-20T00:34:26.570Z,4.90
2018-07-20T00:36:54.676Z,6.40
2018-07-20T00:39:22.812Z,5.77
2018-07-20T00:41:50.895Z,5.93
2018-07-20T00:44:19.074Z,5.40
2018-07-20T00:46:47.154Z,5.30
2018-07-20T00:49:15.277Z,5.20
2018-07-20T00:51:43.343Z,6.40
2018-07-20T00:54:11.533Z,5.03
2018-07-20T00:56:39.685Z,6.53
2018-07-20T00:59:07.807Z,6.37
2018-07-20T01:01:35.911Z,5.20
2018-07-20T01:04:04.068Z,6.23
2018-07-20T01:06:32.184Z,6.80
2018-07-20T01:09:00.284Z,6.43
2018-07-20T01:11:28.392Z,5.20
2018-07-20T01:13:56.512Z,5.67
2018-07-20T01:16:24.615Z,5.80
2018-07-20T01:18:52.731Z,5.63
2018-07-20T01:21:20.827Z,5.87
2018-07-20T01:23:48.920Z,5.70
2018-07-20T01:26:17.108Z,5.90
2018-07-20T01:28:45.211Z,6.10
2018-07-20T01:31:13.308Z,7.00
2018-07-20T01:33:41.391Z,7.13
2018-07-20T01:36:09.543Z,6.00
2018-07-20T01:38:37.646Z,5.60
2018-07-20T01:41:08.815Z,7.20
2018-07-20T01:43:36.910Z,7.13
2018-07-20T01:46:04.981Z,7.20
2018-07-20T01:48:33.087Z,7.27
2018-07-20T01:51:01.176Z,7.17
2018-07-20T01:53:29.264Z,7.10
2018-07-20T01:55:57.134Z,7.70
2018-07-20T01:58:25.225Z,8.10
2018-07-20T02:00:53.336Z,7.50
2018-07-20T02:03:21.465Z,7.60
2018-07-20T02:05:49.579Z,8.83
2018-07-20T02:08:17.676Z,8.07
2018-07-20T02:10:45.784Z,9.13
2018-07-20T02:13:13.892Z,8.30
2018-07-20T02:15:42.100Z,7.40
2018-07-20T02:18:10.224Z,6.97
2018-07-20T02:20:38.430Z,8.13
2018-07-20T02:23:06.530Z,7.33
2018-07-20T02:25:34.666Z,9.20
2018-07-20T02:28:02.789Z,7.70
2018-07-20T02:30:30.928Z,7.57
2018-07-20T02:32:59.067Z,10.60
2018-07-20T02:35:27.204Z,10.70
2018-07-20T02:37:55.350Z,9.13
2018-07-20T02:40:23.464Z,9.13
2018-07-20T02:42:51.572Z,7.80
2018-07-20T02:45:19.683Z,8.30
2018-07-20T02:47:47.841Z,8.80
2018-07-20T02:50:15.974Z,8.13
2018-07-20T02:52:44.094Z,8.90
2018-07-20T02:55:12.228Z,9.10
2018-07-20T02:57:40.375Z,8.97
2018-07-20T03:00:08.496Z,8.37
2018-07-20T03:02:36.674Z,8.20
2018-07-20T03:05:04.821Z,9.53
2018-07-20T03:07:32.924Z,8.50
2018-07-20T03:10:01.052Z,7.87
2018-07-20T03:12:29.195Z,8.10
2018-07-20T03:14:57.355Z,8.10
2018-07-20T03:17:25.486Z,8.10
2018-07-20T03:19:53.598Z,9.17
2018-07-20T03:22:21.712Z,8.90
2018-07-20T03:24:49.815Z,8.57
2018-07-20T03:27:18.016Z,7.80
2018-07-20T03:29:46.120Z,8.60
2018-07-20T03:32:14.236Z,8.87
2018-07-20T03:34:42.352Z,8.10
2018-07-20T03:37:10.476Z,8.53
2018-07-20T03:39:38.625Z,10.10
2018-07-20T03:42:06.747Z,9.20
2018-07-20T03:44:34.874Z,9.23
2018-07-20T03:47:03.015Z,8.80
2018-07-20T03:49:31.141Z,9.63
2018-07-20T03:51:59.278Z,8.83
2018-07-20T03:54:27.407Z,9.53
2018-07-20T03:56:55.532Z,9.83
2018-07-20T03:59:23.646Z,9.70
2018-07-20T04:01:51.757Z,9.33
2018-07-20T04:04:19.868Z,10.77
2018-07-20T04:06:47.987Z,10.23
2018-07-20T04:09:16.146Z,10.30
2018-07-20T04:11:44.250Z,9.57
2018-07-20T04:14:12.372Z,10.50
2018-07-20T04:16:46.977Z,10.20
2018-07-20T04:19:15.068Z,9.53
2018-07-20T04:21:49.875Z,10.27
2018-07-20T04:24:17.979Z,11.00
2018-07-20T04:26:46.084Z,10.23
2018-07-20T04:29:14.208Z,11.50
2018-07-20T04:31:42.313Z,10.23
2018-07-20T04:34:10.444Z,10.33
2018-07-20T04:36:38.537Z,10.67
2018-07-20T04:39:09.170Z,9.03
2018-07-20T04:41:37.290Z,11.37
2018-07-20T04:44:05.380Z,12.47
2018-07-20T04:46:33.507Z,11.57
2018-07-20T04:49:01.608Z,11.53
2018-07-20T04:51:29.778Z,12.10
2018-07-20T04:53:57.870Z,11.70
2018-07-20T04:56:26.180Z,11.70
2018-07-20T04:58:54.294Z,11.43
2018-07-20T05:01:22.389Z,12.07
2018-07-20T05:03:50.726Z,10.60
2018-07-20T05:06:18.826Z,11.03
2018-07-20T05:08:46.916Z,10.73
2018-07-20T05:11:15.044Z,11.50
2018-07-20T05:13:43.164Z,11.43
2018-07-20T05:16:11.484Z,12.40
2018-07-20T05:18:39.691Z,11.37
2018-07-20T05:21:07.949Z,12.40
2018-07-20T05:23:36.408Z,11.97
2018-07-20T05:26:14.657Z,11.83
2018-07-20T05:28:42.739Z,11.40
2018-07-20T05:31:10.834Z,10.70
2018-07-20T05:33:38.960Z,11.10
2018-07-20T05:36:07.070Z,11.20
2018-07-20T05:38:35.161Z,11.23
2018-07-20T05:41:03.252Z,10.53
2018-07-20T05:43:31.348Z,9.87
2018-07-20T05:45:59.537Z,11.37
2018-07-20T05:48:27.646Z,11.13
2018-07-20T05:50:55.731Z,9.50
2018-07-20T05:53:23.897Z,10.57
2018-07-20T05:55:52.048Z,10.10
2018-07-20T05:58:20.151Z,10.97
2018-07-20T06:00:48.260Z,9.70
2018-07-20T06:03:16.340Z,10.33
2018-07-20T06:05:44.459Z,8.60
2018-07-20T06:08:12.547Z,9.57
2018-07-20T06:10:40.857Z,9.50
2018-07-20T06:13:08.935Z,9.17
2018-07-20T06:15:37.038Z,8.40
2018-07-20T06:18:05.133Z,9.00
2018-07-20T06:20:33.229Z,7.90
2018-07-20T06:23:01.316Z,7.43
2018-07-20T06:25:29.403Z,7.40
2018-07-20T06:27:57.505Z,7.53
2018-07-20T06:30:25.592Z,7.93
2018-07-20T06:32:53.684Z,7.10
2018-07-20T06:35:21.783Z,6.90
2018-07-20T06:37:49.886Z,7.00
2018-07-20T06:40:17.968Z,7.60
2018-07-20T06:42:46.139Z,6.80
2018-07-20T06:45:14.218Z,5.80
2018-07-20T06:47:42.354Z,6.30
2018-07-20T06:50:15.740Z,6.53
2018-07-20T06:52:44.540Z,6.07
2018-07-20T06:55:12.803Z,6.00
2018-07-20T06:57:40.903Z,5.87
2018-07-20T07:00:09.490Z,5.20
2018-07-20T07:02:37.628Z,5.33
2018-07-20T07:05:06.835Z,4.80
2018-07-20T07:07:35.009Z,5.07
2018-07-20T07:10:03.095Z,4.33
2018-07-20T07:12:31.196Z,4.80
2018-07-20T07:14:59.340Z,4.33
2018-07-20T07:17:27.396Z,4.90
2018-07-20T07:19:55.490Z,4.60
2018-07-20T07:22:23.609Z,4.53
2018-07-20T07:24:51.700Z,4.53
2018-07-20T07:27:19.783Z,4.50
2018-07-20T07:29:47.882Z,4.20
2018-07-20T07:32:15.972Z,4.30
2018-07-20T07:34:44.108Z,5.00
2018-07-20T07:37:12.191Z,4.10
2018-07-20T07:39:40.307Z,4.27
2018-07-20T07:42:08.496Z,4.73
2018-07-20T07:44:36.554Z,3.83
2018-07-20T07:47:04.652Z,3.93
2018-07-20T07:49:32.724Z,5.07
2018-07-20T07:52:00.835Z,4.37
2018-07-20T07:54:28.916Z,4.67
2018-07-20T07:56:57.005Z,4.30
2018-07-20T07:59:25.112Z,3.90
2018-07-20T08:01:53.217Z,3.97
2018-07-20T08:04:21.394Z,4.20
2018-07-20T08:06:49.487Z,4.47
2018-07-20T08:09:17.573Z,4.47
2018-07-20T08:11:45.668Z,4.40
2018-07-20T08:14:13.940Z,3.13
2018-07-20T08:16:42.016Z,4.23
2018-07-20T08:19:10.101Z,4.67
2018-07-20T08:21:38.164Z,4.03
2018-07-20T08:24:06.615Z,4.47
2018-07-20T08:26:34.698Z,3.80
2018-07-20T08:29:02.784Z,4.83
2018-07-20T08:31:30.891Z,4.60
2018-07-20T08:33:58.986Z,4.10
2018-07-20T08:36:27.059Z,3.80
2018-07-20T08:38:55.198Z,4.17
2018-07-20T08:41:23.316Z,3.60
2018-07-20T08:43:51.453Z,3.60
2018-07-20T08:46:19.782Z,4.20
2018-07-20T08:48:47.897Z,3.87
2018-07-20T08:51:16.025Z,4.37
2018-07-20T08:53:44.386Z,4.10
2018-07-20T08:56:12.474Z,5.00
2018-07-20T08:58:40.705Z,5.17
2018-07-20T09:01:08.787Z,5.10
2018-07-20T09:03:36.921Z,4.33
2018-07-20T09:06:04.987Z,5.80
2018-07-20T09:08:33.074Z,4.13
2018-07-20T09:11:01.181Z,6.80
2018-07-20T09:13:29.392Z,6.50
2018-07-20T09:15:57.529Z,5.50
2018-07-20T09:18:25.740Z,6.40
2018-07-20T09:20:53.885Z,7.00
2018-07-20T09:23:21.984Z,6.23
2018-07-20T09:25:50.095Z,5.77
2018-07-20T09:28:18.327Z,5.80
2018-07-20T09:30:46.404Z,6.20
2018-07-20T09:33:14.549Z,9.13
2018-07-20T09:35:42.668Z,9.30
2018-07-20T09:38:10.796Z,9.07
2018-07-20T09:40:39.124Z,8.17
2018-07-20T09:43:07.348Z,8.87
2018-07-20T09:45:35.589Z,9.20
2018-07-20T09:50:56.792Z,8.30
2018-07-20T09:53:24.977Z,7.47
2018-07-20T09:55:53.134Z,8.07
2018-07-20T09:58:21.343Z,8.13
2018-07-20T10:00:50.016Z,7.27
2018-07-20T10:03:18.723Z,8.00
2018-07-20T10:05:47.293Z,7.37
2018-07-20T10:08:15.888Z,7.80
2018-07-20T10:10:44.035Z,8.50
2018-07-20T10:13:12.148Z,7.73
2018-07-20T10:15:40.267Z,6.93
2018-07-20T10:18:08.401Z,8.60
2018-07-20T10:20:36.527Z,9.20
2018-07-20T10:23:04.647Z,7.50
2018-07-20T10:25:32.988Z,7.00
2018-07-20T10:28:01.140Z,8.13
2018-07-20T10:30:29.333Z,8.60
2018-07-20T10:32:57.446Z,7.67
2018-07-20T10:35:25.546Z,7.77
2018-07-20T10:37:53.660Z,8.13
2018-07-20T10:40:25.338Z,7.50
2018-07-20T10:42:53.575Z,9.17
2018-07-20T10:45:21.720Z,7.00
2018-07-20T10:47:49.835Z,8.00
2018-07-20T10:50:18.934Z,8.20
2018-07-20T10:52:47.047Z,8.30
2018-07-20T10:55:15.175Z,8.10
2018-07-20T10:57:50.114Z,7.67
2018-07-20T11:00:18.272Z,8.97
2018-07-20T11:02:46.402Z,8.37
2018-07-20T11:05:14.545Z,8.17
2018-07-20T11:07:42.664Z,7.83
2018-07-20T11:10:10.568Z,7.93
2018-07-20T11:12:38.648Z,8.37
2018-07-20T11:15:06.760Z,7.80
2018-07-20T11:17:34.931Z,8.20
2018-07-20T11:20:03.069Z,8.23
2018-07-20T11:22:31.183Z,8.03
2018-07-20T11:24:59.292Z,7.10
2018-07-20T11:27:27.408Z,6.70
2018-07-20T11:29:55.532Z,7.33
2018-07-20T11:32:23.650Z,8.30
2018-07-20T11:34:51.781Z,7.07
2018-07-20T11:37:19.908Z,8.27
2018-07-20T11:39:48.024Z,7.70
2018-07-20T11:42:16.139Z,7.30
2018-07-20T11:44:44.269Z,8.43
2018-07-20T11:47:12.811Z,7.83
2018-07-20T11:49:40.967Z,6.43
2018-07-20T11:52:09.067Z,7.97
2018-07-20T11:54:37.300Z,8.23
2018-07-20T11:57:05.449Z,7.87
2018-07-20T11:59:33.659Z,7.27
2018-07-20T12:02:01.768Z,7.17
2018-07-20T12:04:29.880Z,8.67
2018-07-20T12:06:58.029Z,7.20
2018-07-20T12:09:26.112Z,7.83
2018-07-20T12:11:54.231Z,7.90
2018-07-20T12:14:22.387Z,7.60
2018-07-20T12:16:50.523Z,8.10
2018-07-20T12:19:18.632Z,7.60
2018-07-20T12:21:46.783Z,8.17
2018-07-20T12:24:14.891Z,7.90
2018-07-20T12:26:43.007Z,8.67
2018-07-20T12:29:11.389Z,8.63
2018-07-20T12:31:39.503Z,7.40
2018-07-20T12:34:07.700Z,8.50
2018-07-20T12:36:35.760Z,7.77
2018-07-20T12:39:05.564Z,7.90
2018-07-20T12:41:33.701Z,7.40
2018-07-20T12:44:01.873Z,7.90
2018-07-20T12:46:30.003Z,7.50
2018-07-20T12:48:58.131Z,8.00
2018-07-20T12:51:26.255Z,7.80
2018-07-20T12:53:54.360Z,8.37
2018-07-20T12:56:22.485Z,7.83
2018-07-20T12:58:50.651Z,8.87
2018-07-20T13:01:18.861Z,6.70
2018-07-20T13:03:46.991Z,7.50
2018-07-20T13:06:15.128Z,8.43
2018-07-20T13:08:43.244Z,8.07
2018-07-20T13:11:11.382Z,7.97
2018-07-20T13:13:39.489Z,9.13
2018-07-20T13:16:07.620Z,8.00
2018-07-20T13:18:35.760Z,7.80
2018-07-20T13:21:03.896Z,7.10
2018-07-20T13:23:32.015Z,8.23
2018-07-20T13:26:00.142Z,7.77
2018-07-20T13:28:28.269Z,8.47
2018-07-20T13:30:56.394Z,7.60
2018-07-20T13:33:24.491Z,7.53
2018-07-20T13:35:52.933Z,7.63
2018-07-20T13:38:21.119Z,7.00
2018-07-20T13:40:49.309Z,8.20
2018-07-20T13:43:17.426Z,6.73
2018-07-20T13:45:45.660Z,8.00
2018-07-20T13:48:13.793Z,7.47
2018-07-20T13:50:41.947Z,7.50
2018-07-20T13:53:10.141Z,6.70
2018-07-20T13:55:38.203Z,7.70
2018-07-20T13:58:06.842Z,9.17
2018-07-20T14:00:34.964Z,7.27
2018-07-20T14:03:03.117Z,6.90
2018-07-20T14:05:31.223Z,7.00
2018-07-20T14:07:59.365Z,7.33
2018-07-20T14:10:27.547Z,7.07
2018-07-20T14:12:55.696Z,7.80
2018-07-20T14:15:23.812Z,6.83
2018-07-20T14:17:51.932Z,7.33
2018-07-20T14:20:20.033Z,7.40
2018-07-20T14:22:48.248Z,7.40
2018-07-20T14:25:16.354Z,6.50
2018-07-20T14:27:44.580Z,6.97
2018-07-20T14:30:12.728Z,8.30
2018-07-20T14:32:40.926Z,8.07
2018-07-20T14:35:09.049Z,7.40
2018-07-20T14:37:37.279Z,8.13
2018-07-20T14:40:06.738Z,7.20
2018-07-20T14:42:34.897Z,7.77
2018-07-20T14:45:03.120Z,6.93
2018-07-20T14:47:31.248Z,7.13
2018-07-20T14:49:59.376Z,7.77
2018-07-20T14:52:27.499Z,8.07
2018-07-20T14:54:55.616Z,7.57
2018-07-20T14:57:23.754Z,8.60
2018-07-20T14:59:51.856Z,7.73
2018-07-20T15:02:21.479Z,7.40
2018-07-20T15:04:49.695Z,7.33
2018-07-20T15:07:17.817Z,7.70
2018-07-20T15:09:45.927Z,7.67
2018-07-20T15:12:14.071Z,8.03
2018-07-20T15:14:42.205Z,8.33
2018-07-20T15:17:10.511Z,8.13
2018-07-20T15:19:38.636Z,8.60
2018-07-20T15:22:06.747Z,7.33
2018-07-20T15:24:34.940Z,7.63
2018-07-20T15:27:03.082Z,7.10
2018-07-20T15:29:31.244Z,21.50
2018-07-20T15:31:59.353Z,7.70
2018-07-20T15:34:27.507Z,8.03
2018-07-20T15:36:55.699Z,8.20
2018-07-20T15:39:23.893Z,8.10
2018-07-20T15:41:51.994Z,8.17
2018-07-20T15:44:20.119Z,7.10
2018-07-20T15:46:48.546Z,7.70
2018-07-20T15:49:16.400Z,7.73
2018-07-20T15:54:12.702Z,8.30
2018-07-20T15:56:40.807Z,7.27
2018-07-20T15:59:08.986Z,7.43
2018-07-20T16:01:37.102Z,8.33
2018-07-20T16:04:05.269Z,10.45
2018-07-20T16:06:33.384Z,10.07
2018-07-20T16:09:01.552Z,8.77
2018-07-20T16:11:29.694Z,7.40
2018-07-20T16:13:57.864Z,8.67
2018-07-20T16:16:26.787Z,8.40
2018-07-20T16:18:54.879Z,8.43
2018-07-20T16:21:22.971Z,8.27
2018-07-20T16:23:51.059Z,7.07
2018-07-20T16:26:19.204Z,9.17
2018-07-20T16:28:47.340Z,8.60
2018-07-20T16:31:15.425Z,7.53
2018-07-20T16:33:43.694Z,7.67
2018-07-20T16:36:11.780Z,8.10
2018-07-20T16:38:39.880Z,8.37
2018-07-20T16:41:08.422Z,7.80
2018-07-20T16:43:36.494Z,8.33
2018-07-20T16:46:04.583Z,7.97
2018-07-20T16:48:32.683Z,7.83
2018-07-20T16:51:04.136Z,8.20
2018-07-20T16:53:32.233Z,8.40
2018-07-20T16:56:00.363Z,7.70
2018-07-20T16:58:28.441Z,7.50
2018-07-20T17:00:56.540Z,7.60
2018-07-20T17:03:24.599Z,8.70
2018-07-20T17:05:52.671Z,8.83
2018-07-20T17:08:20.759Z,8.87
2018-07-20T17:10:48.847Z,8.30
2018-07-20T17:13:16.960Z,9.20
2018-07-20T17:15:45.036Z,7.43
2018-07-20T17:18:13.167Z,7.70
2018-07-20T17:20:41.333Z,8.20
2018-07-20T17:23:09.448Z,7.80
2018-07-20T17:25:37.583Z,7.90
2018-07-20T17:28:05.897Z,7.77
2018-07-20T17:30:34.013Z,8.20
2018-07-20T17:33:02.128Z,7.70
2018-07-20T17:35:30.254Z,7.57
2018-07-20T17:37:58.368Z,7.93
2018-07-20T17:40:26.464Z,7.87
2018-07-20T17:42:54.581Z,9.03
2018-07-20T17:45:22.701Z,9.10
2018-07-20T17:47:50.814Z,8.03
2018-07-20T17:50:18.919Z,7.30
2018-07-20T17:52:47.057Z,8.60
2018-07-20T17:55:15.176Z,7.67
2018-07-20T17:57:43.321Z,8.47
2018-07-20T18:00:11.484Z,7.53
2018-07-20T18:02:39.602Z,7.90
2018-07-20T18:05:07.715Z,7.10
2018-07-20T18:07:35.859Z,8.40
2018-07-20T18:10:04.985Z,8.67
2018-07-20T18:12:32.878Z,8.57
2018-07-20T18:15:00.996Z,8.50
2018-07-20T18:17:29.113Z,7.53
2018-07-20T18:19:57.200Z,7.60
2018-07-20T18:22:25.312Z,8.70
2018-07-20T18:24:53.413Z,8.33
2018-07-20T18:27:21.659Z,8.73
2018-07-20T18:29:49.656Z,8.43
2018-07-20T18:32:18.255Z,8.70
2018-07-20T18:34:46.414Z,7.90
2018-07-20T18:37:14.517Z,8.63
2018-07-20T18:39:42.588Z,8.00
2018-07-20T18:42:10.814Z,8.10
2018-07-20T18:44:38.841Z,8.80
2018-07-20T18:47:06.929Z,8.60
2018-07-20T18:49:35.063Z,8.30
2018-07-20T18:52:03.165Z,8.07
2018-07-20T18:54:31.240Z,7.83
2018-07-20T18:56:59.331Z,8.40
2018-07-20T18:59:27.717Z,7.27
2018-07-20T19:01:55.859Z,8.30
2018-07-20T19:04:24.086Z,7.30
2018-07-20T19:06:52.188Z,8.17
2018-07-20T19:09:20.300Z,9.37
2018-07-20T19:11:48.400Z,8.10
2018-07-20T19:14:16.477Z,8.10
2018-07-20T19:16:44.559Z,8.20
2018-07-20T19:19:12.643Z,8.87
2018-07-20T19:21:40.725Z,8.30
2018-07-20T19:24:08.809Z,9.30
2018-07-20T19:26:36.904Z,8.90
2018-07-20T19:29:05.014Z,9.17
2018-07-20T19:31:33.083Z,7.90
2018-07-20T19:34:01.164Z,7.40
2018-07-20T19:36:29.095Z,8.47
2018-07-20T19:38:57.197Z,8.87
2018-07-20T19:41:25.269Z,7.50
2018-07-20T19:43:53.344Z,8.27
2018-07-20T19:46:21.424Z,8.90
2018-07-20T19:48:49.524Z,7.23
2018-07-20T19:51:17.619Z,8.67
2018-07-20T19:53:45.696Z,9.63
2018-07-20T19:56:13.782Z,9.00
2018-07-20T19:58:41.892Z,8.73
2018-07-20T20:01:09.979Z,8.20
2018-07-20T20:03:38.091Z,8.60
2018-07-20T20:06:06.191Z,7.90
2018-07-20T20:08:34.334Z,9.00
2018-07-20T20:11:02.445Z,8.87
2018-07-20T20:13:30.524Z,9.20
2018-07-20T20:15:58.614Z,8.93
2018-07-20T20:18:26.771Z,8.30
2018-07-20T20:20:54.888Z,9.03
2018-07-20T20:23:22.996Z,8.90
2018-07-20T20:25:51.172Z,9.70
2018-07-20T20:28:19.344Z,9.20
2018-07-20T20:30:47.467Z,8.13
2018-07-20T20:33:15.569Z,9.33
2018-07-20T20:35:43.760Z,9.20
2018-07-20T20:38:11.840Z,8.00
2018-07-20T20:40:40.025Z,8.03
2018-07-20T20:43:08.139Z,8.90
2018-07-20T20:45:36.273Z,7.80
2018-07-20T20:48:04.947Z,8.47
2018-07-20T20:50:33.113Z,8.43
2018-07-20T20:53:01.217Z,9.67
2018-07-20T20:55:29.334Z,8.87
2018-07-20T20:57:57.428Z,7.97
2018-07-20T21:00:25.549Z,9.50
2018-07-20T21:02:53.518Z,8.67
2018-07-20T21:05:21.653Z,9.70
2018-07-20T21:07:49.763Z,9.53
2018-07-20T21:10:17.878Z,8.80
2018-07-20T21:12:45.985Z,8.50
2018-07-20T21:15:14.099Z,9.30
2018-07-20T21:17:42.460Z,10.20
2018-07-20T21:20:10.562Z,8.37
2018-07-20T21:22:38.680Z,8.20
2018-07-20T21:25:06.955Z,7.70
2018-07-20T21:27:35.068Z,8.57
2018-07-20T21:30:03.153Z,8.47
2018-07-20T21:32:31.900Z,9.40
2018-07-20T21:34:59.996Z,10.17
2018-07-20T21:37:28.134Z,8.33
2018-07-20T21:39:56.257Z,9.37
2018-07-20T21:42:24.139Z,9.20
2018-07-20T21:44:52.220Z,9.73
2018-07-20T21:47:20.322Z,8.90
2018-07-20T21:49:48.383Z,8.30
2018-07-20T21:52:16.515Z,9.60
2018-07-20T21:54:44.693Z,8.07
2018-07-20T21:57:12.843Z,8.70
2018-07-20T21:59:40.953Z,9.23
2018-07-20T22:02:09.088Z,11.03
2018-07-20T22:04:37.480Z,8.47
2018-07-20T22:07:05.669Z,7.60
2018-07-20T22:09:33.804Z,8.40
2018-07-20T22:12:02.005Z,7.57
2018-07-20T22:14:30.141Z,7.97
2018-07-20T22:16:58.260Z,8.60
2018-07-20T22:22:19.670Z,8.97
2018-07-20T22:24:47.784Z,10.07
2018-07-20T22:27:15.692Z,7.70
2018-07-20T22:29:43.788Z,7.80
2018-07-20T22:32:11.900Z,7.87
2018-07-20T22:34:40.009Z,7.93
2018-07-20T22:37:08.179Z,9.37
2018-07-20T22:39:36.299Z,8.90
2018-07-20T22:42:04.433Z,8.60
2018-07-20T22:44:33.566Z,7.83
2018-07-20T22:47:01.696Z,8.40
2018-07-20T22:49:29.809Z,8.07
2018-07-20T22:51:57.924Z,7.63
2018-07-20T22:54:26.043Z,8.77
2018-07-20T22:56:54.170Z,8.23
2018-07-20T22:59:22.436Z,9.10
2018-07-20T23:01:50.577Z,8.03
2018-07-20T23:04:18.693Z,8.23
2018-07-20T23:06:46.813Z,9.10
2018-07-20T23:09:14.949Z,9.03
2018-07-20T23:11:43.078Z,8.47
2018-07-20T23:14:11.193Z,8.43
2018-07-20T23:16:39.432Z,8.60
2018-07-20T23:19:08.233Z,8.13
2018-07-20T23:21:36.425Z,9.97
2018-07-20T23:24:04.615Z,9.37
2018-07-20T23:26:32.513Z,8.43
2018-07-20T23:29:00.635Z,8.70
2018-07-20T23:31:28.823Z,7.57
2018-07-20T23:33:56.958Z,8.10
2018-07-20T23:36:25.066Z,8.73
2018-07-20T23:38:53.188Z,7.90
2018-07-20T23:41:21.311Z,7.90
2018-07-20T23:43:49.424Z,8.90
2018-07-20T23:46:17.660Z,7.70
2018-07-20T23:48:45.814Z,7.83
2018-07-20T23:51:13.900Z,7.80
2018-07-20T23:53:42.016Z,7.27
2018-07-20T23:56:10.138Z,8.17
2018-07-20T23:58:38.260Z,8.53
